sensor_id;sensor_type;location;lat;lon;timestamp;temperature;humidity
42135;DHT22;28312;43.460;11.810;2023-03-01T00:00:00;7.70;68.80
42135;DHT22;28312;43.460;11.810;2023-03-01T00:04:13;7.70;68.80
42135;DHT22;28312;43.460;11.810;2023-03-01T00:08:16;7.70;68.70
42135;DHT22;28312;43.460;11.810;2023-03-01T00:12:20;7.60;68.80
42135;DHT22;28312;43.460;11.810;2023-03-01T00:16:36;7.60;69.00
42135;DHT22;28312;43.460;11.810;2023-03-01T00:20:52;7.50;69.10
42135;DHT22;28312;43.460;11.810;2023-03-01T00:24:56;7.60;69.30
42135;DHT22;28312;43.460;11.810;2023-03-01T00:29:00;7.60;69.30
42135;DHT22;28312;43.460;11.810;2023-03-01T00:33:04;7.60;69.40
42135;DHT22;28312;43.460;11.810;2023-03-01T00:37:07;7.60;69.40
42135;DHT22;28312;43.460;11.810;2023-03-01T00:41:16;7.60;69.50
42135;DHT22;28312;43.460;11.810;2023-03-01T00:45:21;7.70;69.50
42135;DHT22;28312;43.460;11.810;2023-03-01T00:49:25;7.70;69.50
42135;DHT22;28312;43.460;11.810;2023-03-01T00:53:31;7.70;69.50
42135;DHT22;28312;43.460;11.810;2023-03-01T00:57:35;7.70;69.50
42135;DHT22;28312;43.460;11.810;2023-03-01T01:01:39;7.70;69.50
42135;DHT22;28312;43.460;11.810;2023-03-01T01:05:42;7.70;69.50
42135;DHT22;28312;43.460;11.810;2023-03-01T01:09:46;7.70;69.50
42135;DHT22;28312;43.460;11.810;2023-03-01T01:13:51;7.60;69.50
42135;DHT22;28312;43.460;11.810;2023-03-01T01:17:54;7.60;69.50
42135;DHT22;28312;43.460;11.810;2023-03-01T01:21:58;7.60;69.50
42135;DHT22;28312;43.460;11.810;2023-03-01T01:26:16;7.60;69.50
42135;DHT22;28312;43.460;11.810;2023-03-01T01:30:19;7.60;69.40
42135;DHT22;28312;43.460;11.810;2023-03-01T01:34:23;7.50;69.40
42135;DHT22;28312;43.460;11.810;2023-03-01T01:38:28;7.50;69.40
42135;DHT22;28312;43.460;11.810;2023-03-01T01:42:33;7.40;69.40
42135;DHT22;28312;43.460;11.810;2023-03-01T01:46:43;7.50;69.40
42135;DHT22;28312;43.460;11.810;2023-03-01T01:50:56;7.40;69.40
42135;DHT22;28312;43.460;11.810;2023-03-01T01:55:11;7.40;69.40
42135;DHT22;28312;43.460;11.810;2023-03-01T01:59:16;7.30;69.40
42135;DHT22;28312;43.460;11.810;2023-03-01T02:03:26;7.30;69.50
42135;DHT22;28312;43.460;11.810;2023-03-01T02:07:32;7.30;69.50
42135;DHT22;28312;43.460;11.810;2023-03-01T02:11:36;7.30;69.50
42135;DHT22;28312;43.460;11.810;2023-03-01T02:15:41;7.30;69.50
42135;DHT22;28312;43.460;11.810;2023-03-01T02:24:39;7.30;69.50
42135;DHT22;28312;43.460;11.810;2023-03-01T02:28:44;7.30;69.50
42135;DHT22;28312;43.460;11.810;2023-03-01T02:32:48;7.30;69.40
42135;DHT22;28312;43.460;11.810;2023-03-01T02:37:05;7.30;69.40
42135;DHT22;28312;43.460;11.810;2023-03-01T02:41:14;7.30;69.50
42135;DHT22;28312;43.460;11.810;2023-03-01T02:45:18;7.30;69.50
42135;DHT22;28312;43.460;11.810;2023-03-01T02:49:31;7.30;69.60
42135;DHT22;28312;43.460;11.810;2023-03-01T02:58:03;7.40;69.50
42135;DHT22;28312;43.460;11.810;2023-03-01T03:02:26;7.50;69.40
42135;DHT22;28312;43.460;11.810;2023-03-01T03:06:53;7.50;69.30
42135;DHT22;28312;43.460;11.810;2023-03-01T03:10:56;7.50;69.10
42135;DHT22;28312;43.460;11.810;2023-03-01T03:15:00;7.50;69.10
42135;DHT22;28312;43.460;11.810;2023-03-01T03:19:03;7.50;69.10
42135;DHT22;28312;43.460;11.810;2023-03-01T03:23:08;7.50;69.00
42135;DHT22;28312;43.460;11.810;2023-03-01T03:27:12;7.50;69.00
42135;DHT22;28312;43.460;11.810;2023-03-01T03:31:16;7.50;69.00
42135;DHT22;28312;43.460;11.810;2023-03-01T03:35:24;7.50;69.00
42135;DHT22;28312;43.460;11.810;2023-03-01T03:39:28;7.50;69.00
42135;DHT22;28312;43.460;11.810;2023-03-01T03:43:39;7.40;69.00
42135;DHT22;28312;43.460;11.810;2023-03-01T03:47:43;7.40;69.00
42135;DHT22;28312;43.460;11.810;2023-03-01T03:51:47;7.40;69.00
42135;DHT22;28312;43.460;11.810;2023-03-01T03:55:50;7.40;69.00
42135;DHT22;28312;43.460;11.810;2023-03-01T03:59:54;7.40;69.00
42135;DHT22;28312;43.460;11.810;2023-03-01T04:03:58;7.40;69.00
42135;DHT22;28312;43.460;11.810;2023-03-01T04:08:07;7.40;68.90
42135;DHT22;28312;43.460;11.810;2023-03-01T04:12:11;7.40;68.90
42135;DHT22;28312;43.460;11.810;2023-03-01T04:16:14;7.40;68.90
42135;DHT22;28312;43.460;11.810;2023-03-01T04:20:21;7.40;68.80
42135;DHT22;28312;43.460;11.810;2023-03-01T04:24:28;7.40;68.80
42135;DHT22;28312;43.460;11.810;2023-03-01T04:28:36;7.40;68.80
42135;DHT22;28312;43.460;11.810;2023-03-01T04:32:40;7.30;68.80
42135;DHT22;28312;43.460;11.810;2023-03-01T04:36:44;7.30;68.70
42135;DHT22;28312;43.460;11.810;2023-03-01T04:40:48;7.30;68.80
42135;DHT22;28312;43.460;11.810;2023-03-01T04:44:52;7.30;68.80
42135;DHT22;28312;43.460;11.810;2023-03-01T04:48:56;7.30;68.80
42135;DHT22;28312;43.460;11.810;2023-03-01T04:53:00;7.30;68.80
42135;DHT22;28312;43.460;11.810;2023-03-01T04:57:04;7.30;68.80
42135;DHT22;28312;43.460;11.810;2023-03-01T05:01:12;7.30;68.80
42135;DHT22;28312;43.460;11.810;2023-03-01T05:05:34;7.30;68.70
42135;DHT22;28312;43.460;11.810;2023-03-01T05:09:39;7.30;68.70
42135;DHT22;28312;43.460;11.810;2023-03-01T05:13:42;7.30;68.80
42135;DHT22;28312;43.460;11.810;2023-03-01T05:17:46;7.30;68.80
42135;DHT22;28312;43.460;11.810;2023-03-01T05:21:49;7.30;68.80
42135;DHT22;28312;43.460;11.810;2023-03-01T05:26:06;7.30;68.90
42135;DHT22;28312;43.460;11.810;2023-03-01T05:30:24;7.40;68.90
42135;DHT22;28312;43.460;11.810;2023-03-01T05:34:33;7.40;68.80
42135;DHT22;28312;43.460;11.810;2023-03-01T05:38:37;7.40;68.80
42135;DHT22;28312;43.460;11.810;2023-03-01T05:42:52;7.40;68.80
42135;DHT22;28312;43.460;11.810;2023-03-01T05:46:56;7.40;68.70
42135;DHT22;28312;43.460;11.810;2023-03-01T05:51:00;7.40;68.80
42135;DHT22;28312;43.460;11.810;2023-03-01T05:55:05;7.40;68.90
42135;DHT22;28312;43.460;11.810;2023-03-01T05:59:08;7.40;68.90
42135;DHT22;28312;43.460;11.810;2023-03-01T06:03:13;7.40;68.80
42135;DHT22;28312;43.460;11.810;2023-03-01T06:07:18;7.30;68.90
42135;DHT22;28312;43.460;11.810;2023-03-01T06:11:21;7.20;69.00
42135;DHT22;28312;43.460;11.810;2023-03-01T06:15:25;7.20;69.20
42135;DHT22;28312;43.460;11.810;2023-03-01T06:19:29;7.00;69.40
42135;DHT22;28312;43.460;11.810;2023-03-01T06:23:34;6.90;69.50
42135;DHT22;28312;43.460;11.810;2023-03-01T06:27:37;6.90;69.60
42135;DHT22;28312;43.460;11.810;2023-03-01T06:31:41;6.70;69.80
42135;DHT22;28312;43.460;11.810;2023-03-01T06:35:45;6.70;70.10
42135;DHT22;28312;43.460;11.810;2023-03-01T06:39:48;6.50;70.30
42135;DHT22;28312;43.460;11.810;2023-03-01T06:43:52;6.40;70.60
42135;DHT22;28312;43.460;11.810;2023-03-01T06:48:04;6.30;71.00
42135;DHT22;28312;43.460;11.810;2023-03-01T06:52:08;6.30;71.20
42135;DHT22;28312;43.460;11.810;2023-03-01T06:56:11;6.30;71.20
42135;DHT22;28312;43.460;11.810;2023-03-01T07:00:16;6.30;71.20
42135;DHT22;28312;43.460;11.810;2023-03-01T07:04:19;6.40;71.30
42135;DHT22;28312;43.460;11.810;2023-03-01T07:08:23;6.40;71.30
42135;DHT22;28312;43.460;11.810;2023-03-01T07:12:27;6.40;71.30
42135;DHT22;28312;43.460;11.810;2023-03-01T07:16:30;6.40;71.40
42135;DHT22;28312;43.460;11.810;2023-03-01T07:20:34;6.40;71.50
42135;DHT22;28312;43.460;11.810;2023-03-01T07:24:38;6.40;71.40
42135;DHT22;28312;43.460;11.810;2023-03-01T07:28:42;6.40;71.50
42135;DHT22;28312;43.460;11.810;2023-03-01T07:32:46;6.40;71.50
42135;DHT22;28312;43.460;11.810;2023-03-01T07:36:49;6.30;71.40
42135;DHT22;28312;43.460;11.810;2023-03-01T07:40:53;6.10;72.00
42135;DHT22;28312;43.460;11.810;2023-03-01T07:44:57;5.80;72.60
42135;DHT22;28312;43.460;11.810;2023-03-01T07:49:00;5.80;73.20
42135;DHT22;28312;43.460;11.810;2023-03-01T07:53:04;5.80;73.60
42135;DHT22;28312;43.460;11.810;2023-03-01T07:57:07;5.80;74.00
42135;DHT22;28312;43.460;11.810;2023-03-01T08:01:13;5.80;74.40
42135;DHT22;28312;43.460;11.810;2023-03-01T08:05:17;5.90;74.70
42135;DHT22;28312;43.460;11.810;2023-03-01T08:09:22;5.90;74.90
42135;DHT22;28312;43.460;11.810;2023-03-01T08:13:25;5.90;75.10
42135;DHT22;28312;43.460;11.810;2023-03-01T08:17:30;5.90;75.30
42135;DHT22;28312;43.460;11.810;2023-03-01T08:21:34;5.90;75.60
42135;DHT22;28312;43.460;11.810;2023-03-01T08:25:38;5.90;75.90
42135;DHT22;28312;43.460;11.810;2023-03-01T08:29:41;6.00;76.10
42135;DHT22;28312;43.460;11.810;2023-03-01T08:33:47;6.00;76.30
42135;DHT22;28312;43.460;11.810;2023-03-01T08:37:53;6.00;76.50
42135;DHT22;28312;43.460;11.810;2023-03-01T08:41:57;6.00;76.70
42135;DHT22;28312;43.460;11.810;2023-03-01T08:46:01;6.00;76.80
42135;DHT22;28312;43.460;11.810;2023-03-01T08:50:05;6.10;76.90
42135;DHT22;28312;43.460;11.810;2023-03-01T08:54:12;6.20;77.00
42135;DHT22;28312;43.460;11.810;2023-03-01T08:58:16;6.20;77.20
42135;DHT22;28312;43.460;11.810;2023-03-01T09:02:19;6.20;77.30
42135;DHT22;28312;43.460;11.810;2023-03-01T09:06:23;6.20;77.40
42135;DHT22;28312;43.460;11.810;2023-03-01T09:10:27;6.30;77.40
42135;DHT22;28312;43.460;11.810;2023-03-01T09:14:30;6.40;77.30
42135;DHT22;28312;43.460;11.810;2023-03-01T09:18:35;6.40;77.50
42135;DHT22;28312;43.460;11.810;2023-03-01T09:22:39;6.50;77.60
42135;DHT22;28312;43.460;11.810;2023-03-01T09:26:43;6.40;77.70
42135;DHT22;28312;43.460;11.810;2023-03-01T09:30:51;6.40;77.80
42135;DHT22;28312;43.460;11.810;2023-03-01T09:34:55;6.30;78.00
42135;DHT22;28312;43.460;11.810;2023-03-01T09:39:07;6.30;78.10
42135;DHT22;28312;43.460;11.810;2023-03-01T09:47:32;6.20;78.20
42135;DHT22;28312;43.460;11.810;2023-03-01T09:51:39;6.20;78.30
42135;DHT22;28312;43.460;11.810;2023-03-01T09:56:01;6.20;78.40
42135;DHT22;28312;43.460;11.810;2023-03-01T10:00:18;6.10;78.60
42135;DHT22;28312;43.460;11.810;2023-03-01T10:04:26;6.00;78.60
42135;DHT22;28312;43.460;11.810;2023-03-01T10:08:49;5.90;78.60
42135;DHT22;28312;43.460;11.810;2023-03-01T10:12:57;5.80;78.90
42135;DHT22;28312;43.460;11.810;2023-03-01T10:17:27;5.90;79.10
42135;DHT22;28312;43.460;11.810;2023-03-01T10:21:41;5.80;79.20
42135;DHT22;28312;43.460;11.810;2023-03-01T10:26:32;5.80;79.10
42135;DHT22;28312;43.460;11.810;2023-03-01T10:30:41;5.70;79.10
42135;DHT22;28312;43.460;11.810;2023-03-01T10:34:48;5.60;79.20
42135;DHT22;28312;43.460;11.810;2023-03-01T10:38:54;5.50;79.40
42135;DHT22;28312;43.460;11.810;2023-03-01T10:43:02;5.50;79.70
42135;DHT22;28312;43.460;11.810;2023-03-01T10:47:22;5.50;79.80
42135;DHT22;28312;43.460;11.810;2023-03-01T10:51:26;5.60;79.90
42135;DHT22;28312;43.460;11.810;2023-03-01T10:55:40;5.70;79.70
42135;DHT22;28312;43.460;11.810;2023-03-01T10:59:43;5.60;79.90
42135;DHT22;28312;43.460;11.810;2023-03-01T11:08:10;5.70;80.00
42135;DHT22;28312;43.460;11.810;2023-03-01T11:12:16;5.80;79.90
42135;DHT22;28312;43.460;11.810;2023-03-01T11:20:35;5.70;79.90
42135;DHT22;28312;43.460;11.810;2023-03-01T11:28:51;5.50;80.30
42135;DHT22;28312;43.460;11.810;2023-03-01T11:42:15;5.40;80.90
42135;DHT22;28312;43.460;11.810;2023-03-01T11:50:48;5.40;81.10
42135;DHT22;28312;43.460;11.810;2023-03-01T12:30:16;5.50;81.60
42135;DHT22;28312;43.460;11.810;2023-03-01T12:43:33;5.50;81.70
42135;DHT22;28312;43.460;11.810;2023-03-01T12:52:16;5.30;81.30
42135;DHT22;28312;43.460;11.810;2023-03-01T12:56:27;5.30;81.70
42135;DHT22;28312;43.460;11.810;2023-03-01T13:00:35;5.30;82.10
42135;DHT22;28312;43.460;11.810;2023-03-01T13:09:02;5.60;82.40
42135;DHT22;28312;43.460;11.810;2023-03-01T13:13:21;5.70;82.30
42135;DHT22;28312;43.460;11.810;2023-03-01T13:17:31;5.70;82.30
42135;DHT22;28312;43.460;11.810;2023-03-01T13:21:36;5.80;82.40
42135;DHT22;28312;43.460;11.810;2023-03-01T13:30:01;5.80;82.40
42135;DHT22;28312;43.460;11.810;2023-03-01T13:34:44;5.90;82.60
42135;DHT22;28312;43.460;11.810;2023-03-01T13:43:31;6.30;83.00
42135;DHT22;28312;43.460;11.810;2023-03-01T13:47:36;6.40;82.90
42135;DHT22;28312;43.460;11.810;2023-03-01T13:51:39;6.50;82.90
42135;DHT22;28312;43.460;11.810;2023-03-01T13:55:52;6.60;83.10
42135;DHT22;28312;43.460;11.810;2023-03-01T14:00:01;6.70;83.20
42135;DHT22;28312;43.460;11.810;2023-03-01T14:04:30;6.90;83.80
42135;DHT22;28312;43.460;11.810;2023-03-01T14:08:36;7.30;84.10
42135;DHT22;28312;43.460;11.810;2023-03-01T14:13:00;7.50;83.60
42135;DHT22;28312;43.460;11.810;2023-03-01T14:21:22;7.80;82.70
42135;DHT22;28312;43.460;11.810;2023-03-01T14:25:34;7.80;83.40
42135;DHT22;28312;43.460;11.810;2023-03-01T14:29:39;8.30;84.60
42135;DHT22;28312;43.460;11.810;2023-03-01T14:33:54;9.20;84.80
42135;DHT22;28312;43.460;11.810;2023-03-01T14:37:59;9.90;83.70
42135;DHT22;28312;43.460;11.810;2023-03-01T14:42:04;10.50;82.20
42135;DHT22;28312;43.460;11.810;2023-03-01T14:46:29;10.70;81.60
42135;DHT22;28312;43.460;11.810;2023-03-01T14:50:36;10.40;79.30
42135;DHT22;28312;43.460;11.810;2023-03-01T14:54:47;9.90;79.50
42135;DHT22;28312;43.460;11.810;2023-03-01T14:58:53;9.50;79.80
42135;DHT22;28312;43.460;11.810;2023-03-01T15:03:13;9.40;80.60
42135;DHT22;28312;43.460;11.810;2023-03-01T15:07:19;9.60;81.40
42135;DHT22;28312;43.460;11.810;2023-03-01T15:11:30;9.80;80.60
42135;DHT22;28312;43.460;11.810;2023-03-01T15:15:38;9.70;79.10
42135;DHT22;28312;43.460;11.810;2023-03-01T15:19:42;9.70;80.40
42135;DHT22;28312;43.460;11.810;2023-03-01T15:24:08;9.80;80.00
42135;DHT22;28312;43.460;11.810;2023-03-01T15:28:29;10.00;78.70
42135;DHT22;28312;43.460;11.810;2023-03-01T15:32:35;10.10;78.60
42135;DHT22;28312;43.460;11.810;2023-03-01T15:36:46;10.10;78.00
42135;DHT22;28312;43.460;11.810;2023-03-01T15:40:54;10.00;77.80
42135;DHT22;28312;43.460;11.810;2023-03-01T15:45:10;10.00;77.90
42135;DHT22;28312;43.460;11.810;2023-03-01T15:49:37;9.90;77.50
42135;DHT22;28312;43.460;11.810;2023-03-01T15:54:00;9.80;77.10
42135;DHT22;28312;43.460;11.810;2023-03-01T15:58:11;9.70;77.60
42135;DHT22;28312;43.460;11.810;2023-03-01T16:02:16;9.60;77.30
42135;DHT22;28312;43.460;11.810;2023-03-01T16:06:22;9.20;77.20
42135;DHT22;28312;43.460;11.810;2023-03-01T16:10:27;8.90;77.30
42135;DHT22;28312;43.460;11.810;2023-03-01T16:14:31;8.70;77.30
42135;DHT22;28312;43.460;11.810;2023-03-01T16:18:34;8.40;77.30
42135;DHT22;28312;43.460;11.810;2023-03-01T16:22:38;8.20;77.60
42135;DHT22;28312;43.460;11.810;2023-03-01T16:26:42;8.00;77.60
42135;DHT22;28312;43.460;11.810;2023-03-01T16:30:47;7.90;77.80
42135;DHT22;28312;43.460;11.810;2023-03-01T16:34:52;7.70;77.40
42135;DHT22;28312;43.460;11.810;2023-03-01T16:38:58;7.50;77.20
42135;DHT22;28312;43.460;11.810;2023-03-01T16:43:02;7.30;77.20
42135;DHT22;28312;43.460;11.810;2023-03-01T16:47:05;7.00;77.20
42135;DHT22;28312;43.460;11.810;2023-03-01T16:51:09;6.70;76.90
42135;DHT22;28312;43.460;11.810;2023-03-01T16:55:14;6.50;77.20
42135;DHT22;28312;43.460;11.810;2023-03-01T16:59:18;6.20;77.30
42135;DHT22;28312;43.460;11.810;2023-03-01T17:03:24;6.00;77.50
42135;DHT22;28312;43.460;11.810;2023-03-01T17:07:31;5.80;77.40
42135;DHT22;28312;43.460;11.810;2023-03-01T17:11:37;5.70;77.50
42135;DHT22;28312;43.460;11.810;2023-03-01T17:15:41;5.50;77.50
42135;DHT22;28312;43.460;11.810;2023-03-01T17:19:44;5.40;77.50
42135;DHT22;28312;43.460;11.810;2023-03-01T17:23:48;5.20;77.60
42135;DHT22;28312;43.460;11.810;2023-03-01T17:27:52;5.10;77.70
42135;DHT22;28312;43.460;11.810;2023-03-01T17:31:56;5.10;77.80
42135;DHT22;28312;43.460;11.810;2023-03-01T17:36:00;5.00;77.80
42135;DHT22;28312;43.460;11.810;2023-03-01T17:40:05;4.90;77.80
42135;DHT22;28312;43.460;11.810;2023-03-01T17:44:08;4.90;77.80
42135;DHT22;28312;43.460;11.810;2023-03-01T17:48:13;4.80;77.80
42135;DHT22;28312;43.460;11.810;2023-03-01T17:52:16;4.70;77.60
42135;DHT22;28312;43.460;11.810;2023-03-01T17:56:20;4.60;77.40
42135;DHT22;28312;43.460;11.810;2023-03-01T18:00:25;4.30;77.30
42135;DHT22;28312;43.460;11.810;2023-03-01T18:04:30;4.20;77.40
42135;DHT22;28312;43.460;11.810;2023-03-01T18:08:36;4.00;77.40
42135;DHT22;28312;43.460;11.810;2023-03-01T18:12:41;3.90;77.40
42135;DHT22;28312;43.460;11.810;2023-03-01T18:16:46;3.80;77.30
42135;DHT22;28312;43.460;11.810;2023-03-01T18:21:00;3.70;77.30
42135;DHT22;28312;43.460;11.810;2023-03-01T18:25:07;3.60;77.30
42135;DHT22;28312;43.460;11.810;2023-03-01T18:29:12;3.50;77.30
42135;DHT22;28312;43.460;11.810;2023-03-01T18:33:20;3.40;77.30
42135;DHT22;28312;43.460;11.810;2023-03-01T18:37:26;3.30;77.30
42135;DHT22;28312;43.460;11.810;2023-03-01T18:41:32;3.20;77.40
42135;DHT22;28312;43.460;11.810;2023-03-01T18:45:36;3.00;77.30
42135;DHT22;28312;43.460;11.810;2023-03-01T18:49:42;2.90;77.30
42135;DHT22;28312;43.460;11.810;2023-03-01T18:53:48;2.80;77.40
42135;DHT22;28312;43.460;11.810;2023-03-01T18:57:54;2.60;77.50
42135;DHT22;28312;43.460;11.810;2023-03-01T19:01:57;2.50;77.60
42135;DHT22;28312;43.460;11.810;2023-03-01T19:06:01;2.40;77.70
42135;DHT22;28312;43.460;11.810;2023-03-01T19:10:07;2.30;77.70
42135;DHT22;28312;43.460;11.810;2023-03-01T19:14:13;2.30;77.70
42135;DHT22;28312;43.460;11.810;2023-03-01T19:18:17;2.20;77.70
42135;DHT22;28312;43.460;11.810;2023-03-01T19:22:21;2.10;77.80
42135;DHT22;28312;43.460;11.810;2023-03-01T19:26:27;2.10;77.80
42135;DHT22;28312;43.460;11.810;2023-03-01T19:30:37;2.00;77.70
42135;DHT22;28312;43.460;11.810;2023-03-01T19:34:41;2.00;77.70
42135;DHT22;28312;43.460;11.810;2023-03-01T19:38:47;1.90;77.80
42135;DHT22;28312;43.460;11.810;2023-03-01T19:42:52;1.90;77.90
42135;DHT22;28312;43.460;11.810;2023-03-01T19:46:57;1.90;77.90
42135;DHT22;28312;43.460;11.810;2023-03-01T19:51:01;2.00;78.00
42135;DHT22;28312;43.460;11.810;2023-03-01T19:55:05;2.00;78.10
42135;DHT22;28312;43.460;11.810;2023-03-01T19:59:12;2.10;78.10
42135;DHT22;28312;43.460;11.810;2023-03-01T20:03:15;2.10;78.00
42135;DHT22;28312;43.460;11.810;2023-03-01T20:07:20;2.10;77.90
42135;DHT22;28312;43.460;11.810;2023-03-01T20:11:23;2.00;77.80
42135;DHT22;28312;43.460;11.810;2023-03-01T20:15:29;1.80;77.70
42135;DHT22;28312;43.460;11.810;2023-03-01T20:19:33;1.80;77.70
42135;DHT22;28312;43.460;11.810;2023-03-01T20:23:38;1.70;77.80
42135;DHT22;28312;43.460;11.810;2023-03-01T20:27:41;1.60;77.80
42135;DHT22;28312;43.460;11.810;2023-03-01T20:31:50;1.50;77.90
42135;DHT22;28312;43.460;11.810;2023-03-01T20:35:55;1.50;77.90
42135;DHT22;28312;43.460;11.810;2023-03-01T20:39:59;1.40;77.90
42135;DHT22;28312;43.460;11.810;2023-03-01T20:44:03;1.50;78.00
42135;DHT22;28312;43.460;11.810;2023-03-01T20:48:09;1.40;77.90
42135;DHT22;28312;43.460;11.810;2023-03-01T20:52:13;1.30;77.80
42135;DHT22;28312;43.460;11.810;2023-03-01T20:56:18;1.20;77.90
42135;DHT22;28312;43.460;11.810;2023-03-01T21:00:37;1.20;77.90
42135;DHT22;28312;43.460;11.810;2023-03-01T21:04:43;1.10;77.90
42135;DHT22;28312;43.460;11.810;2023-03-01T21:08:46;1.10;77.90
42135;DHT22;28312;43.460;11.810;2023-03-01T21:12:50;1.00;77.90
42135;DHT22;28312;43.460;11.810;2023-03-01T21:16:54;0.90;77.90
42135;DHT22;28312;43.460;11.810;2023-03-01T21:21:07;0.80;77.90
42135;DHT22;28312;43.460;11.810;2023-03-01T21:25:12;0.80;78.00
42135;DHT22;28312;43.460;11.810;2023-03-01T21:29:18;0.70;77.90
42135;DHT22;28312;43.460;11.810;2023-03-01T21:33:23;0.70;77.90
42135;DHT22;28312;43.460;11.810;2023-03-01T21:37:28;0.70;77.90
42135;DHT22;28312;43.460;11.810;2023-03-01T21:41:36;0.70;78.00
42135;DHT22;28312;43.460;11.810;2023-03-01T21:45:42;0.60;78.00
42135;DHT22;28312;43.460;11.810;2023-03-01T21:49:47;0.60;78.00
42135;DHT22;28312;43.460;11.810;2023-03-01T21:53:56;0.50;78.10
42135;DHT22;28312;43.460;11.810;2023-03-01T21:58:01;0.50;78.10
42135;DHT22;28312;43.460;11.810;2023-03-01T22:02:06;0.40;78.20
42135;DHT22;28312;43.460;11.810;2023-03-01T22:06:16;0.40;78.20
42135;DHT22;28312;43.460;11.810;2023-03-01T22:10:21;0.40;78.20
42135;DHT22;28312;43.460;11.810;2023-03-01T22:14:30;0.30;78.10
42135;DHT22;28312;43.460;11.810;2023-03-01T22:18:34;0.40;78.00
42135;DHT22;28312;43.460;11.810;2023-03-01T22:22:38;0.30;78.00
42135;DHT22;28312;43.460;11.810;2023-03-01T22:26:43;0.30;78.10
42135;DHT22;28312;43.460;11.810;2023-03-01T22:30:47;0.30;78.30
42135;DHT22;28312;43.460;11.810;2023-03-01T22:34:51;0.30;78.30
42135;DHT22;28312;43.460;11.810;2023-03-01T22:38:55;0.30;78.20
42135;DHT22;28312;43.460;11.810;2023-03-01T22:43:02;0.40;78.20
42135;DHT22;28312;43.460;11.810;2023-03-01T22:47:06;0.40;78.10
42135;DHT22;28312;43.460;11.810;2023-03-01T22:51:22;0.30;77.90
42135;DHT22;28312;43.460;11.810;2023-03-01T22:55:27;0.30;77.90
42135;DHT22;28312;43.460;11.810;2023-03-01T22:59:31;0.30;77.80
42135;DHT22;28312;43.460;11.810;2023-03-01T23:03:35;0.30;77.80
42135;DHT22;28312;43.460;11.810;2023-03-01T23:07:39;0.30;78.00
42135;DHT22;28312;43.460;11.810;2023-03-01T23:11:43;0.30;77.90
42135;DHT22;28312;43.460;11.810;2023-03-01T23:15:52;0.30;77.70
42135;DHT22;28312;43.460;11.810;2023-03-01T23:19:56;0.30;77.60
42135;DHT22;28312;43.460;11.810;2023-03-01T23:24:00;0.30;77.40
42135;DHT22;28312;43.460;11.810;2023-03-01T23:28:05;0.20;77.50
42135;DHT22;28312;43.460;11.810;2023-03-01T23:32:09;0.10;77.60
42135;DHT22;28312;43.460;11.810;2023-03-01T23:36:19;0.00;77.60
42135;DHT22;28312;43.460;11.810;2023-03-01T23:40:23;0.00;77.80
42135;DHT22;28312;43.460;11.810;2023-03-01T23:44:26;0.00;78.00
42135;DHT22;28312;43.460;11.810;2023-03-01T23:48:30;0.10;78.10
42135;DHT22;28312;43.460;11.810;2023-03-01T23:52:37;0.20;78.10
42135;DHT22;28312;43.460;11.810;2023-03-01T23:56:43;0.20;78.00
